sensor_id;sensor_type;location;lat;lon;timestamp;temperature;humidity
73792;DHT22;62122;41.112;16.694;2022-08-18T00:01:23;27.03;61.98
73792;DHT22;62122;41.112;16.694;2022-08-18T00:04:27;26.97;62.16
73792;DHT22;62122;41.112;16.694;2022-08-18T00:07:31;26.99;62.17
73792;DHT22;62122;41.112;16.694;2022-08-18T00:10:39;26.96;62.25
73792;DHT22;62122;41.112;16.694;2022-08-18T00:13:43;26.97;62.29
73792;DHT22;62122;41.112;16.694;2022-08-18T00:16:50;26.96;62.38
73792;DHT22;62122;41.112;16.694;2022-08-18T00:19:55;26.97;62.32
73792;DHT22;62122;41.112;16.694;2022-08-18T00:23:01;26.93;62.34
73792;DHT22;62122;41.112;16.694;2022-08-18T00:26:05;26.89;62.26
73792;DHT22;62122;41.112;16.694;2022-08-18T00:29:09;26.86;62.19
73792;DHT22;62122;41.112;16.694;2022-08-18T00:32:19;26.83;62.11
73792;DHT22;62122;41.112;16.694;2022-08-18T00:35:29;26.85;61.96
73792;DHT22;62122;41.112;16.694;2022-08-18T00:38:33;26.83;61.50
73792;DHT22;62122;41.112;16.694;2022-08-18T00:41:38;26.90;61.40
73792;DHT22;62122;41.112;16.694;2022-08-18T00:44:43;26.94;61.16
73792;DHT22;62122;41.112;16.694;2022-08-18T00:47:46;26.89;61.33
73792;DHT22;62122;41.112;16.694;2022-08-18T00:50:59;26.92;61.24
73792;DHT22;62122;41.112;16.694;2022-08-18T00:54:12;26.93;61.16
73792;DHT22;62122;41.112;16.694;2022-08-18T00:57:18;26.87;61.25
73792;DHT22;62122;41.112;16.694;2022-08-18T01:00:24;26.85;61.23
73792;DHT22;62122;41.112;16.694;2022-08-18T01:03:30;26.86;61.09
73792;DHT22;62122;41.112;16.694;2022-08-18T01:06:59;26.80;61.17
73792;DHT22;62122;41.112;16.694;2022-08-18T01:10:05;26.86;61.00
73792;DHT22;62122;41.112;16.694;2022-08-18T01:13:09;26.82;61.05
73792;DHT22;62122;41.112;16.694;2022-08-18T01:16:13;26.80;61.07
73792;DHT22;62122;41.112;16.694;2022-08-18T01:19:36;26.75;61.26
73792;DHT22;62122;41.112;16.694;2022-08-18T01:23:13;26.73;61.23
73792;DHT22;62122;41.112;16.694;2022-08-18T01:26:19;26.69;61.56
73792;DHT22;62122;41.112;16.694;2022-08-18T01:29:25;26.63;61.71
73792;DHT22;62122;41.112;16.694;2022-08-18T01:32:31;26.60;61.92
73792;DHT22;62122;41.112;16.694;2022-08-18T01:35:35;26.53;62.19
73792;DHT22;62122;41.112;16.694;2022-08-18T01:38:39;26.52;62.23
73792;DHT22;62122;41.112;16.694;2022-08-18T01:41:43;26.52;62.38
73792;DHT22;62122;41.112;16.694;2022-08-18T01:44:48;26.52;62.43
73792;DHT22;62122;41.112;16.694;2022-08-18T01:47:53;26.58;62.37
73792;DHT22;62122;41.112;16.694;2022-08-18T01:50:59;26.53;62.49
73792;DHT22;62122;41.112;16.694;2022-08-18T01:54:04;26.51;62.60
73792;DHT22;62122;41.112;16.694;2022-08-18T01:57:07;26.53;62.64
73792;DHT22;62122;41.112;16.694;2022-08-18T02:00:16;26.56;62.67
73792;DHT22;62122;41.112;16.694;2022-08-18T02:03:21;26.58;62.59
73792;DHT22;62122;41.112;16.694;2022-08-18T02:06:29;26.58;62.62
73792;DHT22;62122;41.112;16.694;2022-08-18T02:09:33;26.60;62.63
73792;DHT22;62122;41.112;16.694;2022-08-18T02:12:39;26.62;62.56
73792;DHT22;62122;41.112;16.694;2022-08-18T02:15:44;26.68;62.39
73792;DHT22;62122;41.112;16.694;2022-08-18T02:18:49;26.65;62.44
73792;DHT22;62122;41.112;16.694;2022-08-18T02:21:53;26.56;62.69
73792;DHT22;62122;41.112;16.694;2022-08-18T02:24:57;26.52;62.87
73792;DHT22;62122;41.112;16.694;2022-08-18T02:28:03;26.51;62.93
73792;DHT22;62122;41.112;16.694;2022-08-18T02:31:11;26.48;63.05
73792;DHT22;62122;41.112;16.694;2022-08-18T02:34:17;26.45;63.10
73792;DHT22;62122;41.112;16.694;2022-08-18T02:37:22;26.47;63.11
73792;DHT22;62122;41.112;16.694;2022-08-18T02:40:26;26.45;62.98
73792;DHT22;62122;41.112;16.694;2022-08-18T02:43:31;26.20;63.56
73792;DHT22;62122;41.112;16.694;2022-08-18T02:46:36;26.01;64.19
73792;DHT22;62122;41.112;16.694;2022-08-18T02:49:40;26.04;64.10
73792;DHT22;62122;41.112;16.694;2022-08-18T02:52:44;25.93;64.57
73792;DHT22;62122;41.112;16.694;2022-08-18T02:55:48;25.83;64.76
73792;DHT22;62122;41.112;16.694;2022-08-18T02:59:02;25.86;64.69
73792;DHT22;62122;41.112;16.694;2022-08-18T03:02:08;25.86;64.87
73792;DHT22;62122;41.112;16.694;2022-08-18T03:05:12;25.96;64.63
73792;DHT22;62122;41.112;16.694;2022-08-18T03:08:17;25.91;64.92
73792;DHT22;62122;41.112;16.694;2022-08-18T03:11:23;25.91;65.02
73792;DHT22;62122;41.112;16.694;2022-08-18T03:14:28;25.94;64.99
73792;DHT22;62122;41.112;16.694;2022-08-18T03:17:34;25.82;65.31
73792;DHT22;62122;41.112;16.694;2022-08-18T03:20:39;25.80;65.42
73792;DHT22;62122;41.112;16.694;2022-08-18T03:23:47;25.84;65.24
73792;DHT22;62122;41.112;16.694;2022-08-18T03:26:53;25.93;65.13
73792;DHT22;62122;41.112;16.694;2022-08-18T03:30:00;25.89;65.34
73792;DHT22;62122;41.112;16.694;2022-08-18T03:33:06;25.89;65.25
73792;DHT22;62122;41.112;16.694;2022-08-18T03:36:13;25.89;65.20
73792;DHT22;62122;41.112;16.694;2022-08-18T03:39:18;25.83;65.37
73792;DHT22;62122;41.112;16.694;2022-08-18T03:42:22;25.82;65.53
73792;DHT22;62122;41.112;16.694;2022-08-18T03:45:26;25.80;65.58
73792;DHT22;62122;41.112;16.694;2022-08-18T03:48:31;25.80;65.49
73792;DHT22;62122;41.112;16.694;2022-08-18T03:51:37;25.74;65.93
73792;DHT22;62122;41.112;16.694;2022-08-18T03:54:43;25.76;65.96
73792;DHT22;62122;41.112;16.694;2022-08-18T03:57:49;25.69;66.17
73792;DHT22;62122;41.112;16.694;2022-08-18T04:00:55;25.53;66.73
73792;DHT22;62122;41.112;16.694;2022-08-18T04:04:01;25.41;66.99
73792;DHT22;62122;41.112;16.694;2022-08-18T04:07:08;25.36;67.03
73792;DHT22;62122;41.112;16.694;2022-08-18T04:10:13;25.34;66.84
73792;DHT22;62122;41.112;16.694;2022-08-18T04:13:17;25.39;66.64
73792;DHT22;62122;41.112;16.694;2022-08-18T04:16:20;25.42;66.57
73792;DHT22;62122;41.112;16.694;2022-08-18T04:19:24;25.52;66.26
73792;DHT22;62122;41.112;16.694;2022-08-18T04:22:30;25.53;66.09
73792;DHT22;62122;41.112;16.694;2022-08-18T04:25:36;25.55;66.19
73792;DHT22;62122;41.112;16.694;2022-08-18T04:28:42;25.63;65.89
73792;DHT22;62122;41.112;16.694;2022-08-18T04:31:48;25.70;65.74
73792;DHT22;62122;41.112;16.694;2022-08-18T04:34:52;25.82;65.40
73792;DHT22;62122;41.112;16.694;2022-08-18T04:38:00;25.83;65.16
73792;DHT22;62122;41.112;16.694;2022-08-18T04:41:05;25.91;65.11
73792;DHT22;62122;41.112;16.694;2022-08-18T04:44:11;25.96;65.03
73792;DHT22;62122;41.112;16.694;2022-08-18T04:47:15;25.94;65.16
73792;DHT22;62122;41.112;16.694;2022-08-18T04:50:19;26.00;65.12
73792;DHT22;62122;41.112;16.694;2022-08-18T04:53:24;26.13;64.95
73792;DHT22;62122;41.112;16.694;2022-08-18T04:56:46;26.16;64.97
73792;DHT22;62122;41.112;16.694;2022-08-18T04:59:50;26.22;64.94
73792;DHT22;62122;41.112;16.694;2022-08-18T05:02:55;26.21;65.10
73792;DHT22;62122;41.112;16.694;2022-08-18T05:06:03;26.28;65.01
73792;DHT22;62122;41.112;16.694;2022-08-18T05:09:09;26.29;65.11
73792;DHT22;62122;41.112;16.694;2022-08-18T05:12:15;26.38;64.90
73792;DHT22;62122;41.112;16.694;2022-08-18T05:15:20;26.51;64.64
73792;DHT22;62122;41.112;16.694;2022-08-18T05:18:24;26.62;64.15
73792;DHT22;62122;41.112;16.694;2022-08-18T05:21:28;26.78;63.76
73792;DHT22;62122;41.112;16.694;2022-08-18T05:24:32;26.83;63.73
73792;DHT22;62122;41.112;16.694;2022-08-18T05:27:39;26.90;63.44
73792;DHT22;62122;41.112;16.694;2022-08-18T05:30:45;27.04;63.04
73792;DHT22;62122;41.112;16.694;2022-08-18T05:33:50;27.18;62.54
73792;DHT22;62122;41.112;16.694;2022-08-18T05:37:27;27.34;62.22
73792;DHT22;62122;41.112;16.694;2022-08-18T05:40:35;27.51;61.64
73792;DHT22;62122;41.112;16.694;2022-08-18T05:43:43;27.66;61.06
73792;DHT22;62122;41.112;16.694;2022-08-18T05:46:53;27.88;60.25
73792;DHT22;62122;41.112;16.694;2022-08-18T05:50:05;27.92;60.11
73792;DHT22;62122;41.112;16.694;2022-08-18T05:53:13;28.07;59.85
73792;DHT22;62122;41.112;16.694;2022-08-18T05:56:23;28.06;59.75
73792;DHT22;62122;41.112;16.694;2022-08-18T05:59:51;28.07;59.62
73792;DHT22;62122;41.112;16.694;2022-08-18T06:02:59;28.20;59.16
73792;DHT22;62122;41.112;16.694;2022-08-18T06:06:11;28.33;58.75
73792;DHT22;62122;41.112;16.694;2022-08-18T06:09:25;28.48;58.34
73792;DHT22;62122;41.112;16.694;2022-08-18T06:12:52;28.62;57.60
73792;DHT22;62122;41.112;16.694;2022-08-18T06:22:58;28.72;58.22
73792;DHT22;62122;41.112;16.694;2022-08-18T06:26:41;28.78;58.20
73792;DHT22;62122;41.112;16.694;2022-08-18T06:30:11;29.06;57.47
73792;DHT22;62122;41.112;16.694;2022-08-18T06:33:29;29.13;57.49
73792;DHT22;62122;41.112;16.694;2022-08-18T06:36:53;29.53;56.71
73792;DHT22;62122;41.112;16.694;2022-08-18T06:39:58;29.53;57.11
73792;DHT22;62122;41.112;16.694;2022-08-18T06:43:05;29.37;57.53
73792;DHT22;62122;41.112;16.694;2022-08-18T06:46:17;29.63;56.87
73792;DHT22;62122;41.112;16.694;2022-08-18T06:50:01;29.80;56.38
73792;DHT22;62122;41.112;16.694;2022-08-18T06:53:07;30.36;54.93
73792;DHT22;62122;41.112;16.694;2022-08-18T06:59:41;31.25;53.24
73792;DHT22;62122;41.112;16.694;2022-08-18T07:06:07;32.03;51.51
73792;DHT22;62122;41.112;16.694;2022-08-18T07:09:20;32.28;50.60
73792;DHT22;62122;41.112;16.694;2022-08-18T07:12:27;32.56;50.21
73792;DHT22;62122;41.112;16.694;2022-08-18T07:15:31;32.96;49.38
73792;DHT22;62122;41.112;16.694;2022-08-18T07:18:35;33.81;47.73
73792;DHT22;62122;41.112;16.694;2022-08-18T07:21:39;33.74;47.61
73792;DHT22;62122;41.112;16.694;2022-08-18T07:24:48;34.64;45.27
73792;DHT22;62122;41.112;16.694;2022-08-18T07:27:54;35.42;43.96
73792;DHT22;62122;41.112;16.694;2022-08-18T07:34:41;33.30;47.99
73792;DHT22;62122;41.112;16.694;2022-08-18T07:38:07;33.21;47.91
73792;DHT22;62122;41.112;16.694;2022-08-18T07:41:18;32.78;49.04
73792;DHT22;62122;41.112;16.694;2022-08-18T07:44:45;33.50;47.49
73792;DHT22;62122;41.112;16.694;2022-08-18T07:48:02;34.70;45.15
73792;DHT22;62122;41.112;16.694;2022-08-18T07:51:52;33.61;47.39
73792;DHT22;62122;41.112;16.694;2022-08-18T08:05:15;35.25;44.81
73792;DHT22;62122;41.112;16.694;2022-08-18T08:08:33;34.17;45.49
73792;DHT22;62122;41.112;16.694;2022-08-18T08:12:00;34.48;45.12
73792;DHT22;62122;41.112;16.694;2022-08-18T08:21:47;34.23;44.30
73792;DHT22;62122;41.112;16.694;2022-08-18T08:32:00;34.16;45.07
73792;DHT22;62122;41.112;16.694;2022-08-18T08:35:18;34.23;44.53
73792;DHT22;62122;41.112;16.694;2022-08-18T08:38:30;34.15;44.52
73792;DHT22;62122;41.112;16.694;2022-08-18T08:41:44;35.01;42.71
73792;DHT22;62122;41.112;16.694;2022-08-18T08:44:58;35.80;39.25
73792;DHT22;62122;41.112;16.694;2022-08-18T08:48:22;35.36;41.36
73792;DHT22;62122;41.112;16.694;2022-08-18T08:51:44;34.43;42.94
73792;DHT22;62122;41.112;16.694;2022-08-18T08:55:02;34.61;41.84
73792;DHT22;62122;41.112;16.694;2022-08-18T09:04:56;34.27;42.51
73792;DHT22;62122;41.112;16.694;2022-08-18T09:22:09;35.60;37.99
73792;DHT22;62122;41.112;16.694;2022-08-18T09:24:53;34.84;39.03
73792;DHT22;62122;41.112;16.694;2022-08-18T09:31:20;34.87;37.11
73792;DHT22;62122;41.112;16.694;2022-08-18T09:38:07;34.85;37.39
73792;DHT22;62122;41.112;16.694;2022-08-18T09:41:37;34.85;37.78
73792;DHT22;62122;41.112;16.694;2022-08-18T09:54:30;35.35;36.38
73792;DHT22;62122;41.112;16.694;2022-08-18T09:57:36;35.22;35.71
73792;DHT22;62122;41.112;16.694;2022-08-18T10:00:40;35.32;35.70
73792;DHT22;62122;41.112;16.694;2022-08-18T10:04:46;34.83;37.26
73792;DHT22;62122;41.112;16.694;2022-08-18T10:07:33;35.02;37.40
73792;DHT22;62122;41.112;16.694;2022-08-18T10:10:50;35.36;37.13
73792;DHT22;62122;41.112;16.694;2022-08-18T10:20:41;35.61;36.76
73792;DHT22;62122;41.112;16.694;2022-08-18T10:31:06;35.61;36.60
73792;DHT22;62122;41.112;16.694;2022-08-18T10:34:11;36.00;36.53
73792;DHT22;62122;41.112;16.694;2022-08-18T10:37:35;36.27;35.94
73792;DHT22;62122;41.112;16.694;2022-08-18T10:40:40;35.90;36.76
73792;DHT22;62122;41.112;16.694;2022-08-18T10:43:47;36.22;36.43
73792;DHT22;62122;41.112;16.694;2022-08-18T10:46:53;35.93;36.73
73792;DHT22;62122;41.112;16.694;2022-08-18T10:50:00;36.24;35.69
73792;DHT22;62122;41.112;16.694;2022-08-18T10:59:56;36.29;36.10
73792;DHT22;62122;41.112;16.694;2022-08-18T11:03:25;36.57;35.66
73792;DHT22;62122;41.112;16.694;2022-08-18T11:06:43;36.59;35.46
73792;DHT22;62122;41.112;16.694;2022-08-18T11:09:51;36.69;35.19
73792;DHT22;62122;41.112;16.694;2022-08-18T11:20:05;36.38;35.84
73792;DHT22;62122;41.112;16.694;2022-08-18T11:23:14;36.89;35.12
73792;DHT22;62122;41.112;16.694;2022-08-18T11:26:17;36.83;34.99
73792;DHT22;62122;41.112;16.694;2022-08-18T11:29:39;36.70;35.07
73792;DHT22;62122;41.112;16.694;2022-08-18T11:32:44;36.48;35.05
73792;DHT22;62122;41.112;16.694;2022-08-18T11:35:51;36.55;34.78
73792;DHT22;62122;41.112;16.694;2022-08-18T11:38:56;36.93;34.17
73792;DHT22;62122;41.112;16.694;2022-08-18T11:42:00;37.03;34.15
73792;DHT22;62122;41.112;16.694;2022-08-18T11:45:19;37.21;33.97
73792;DHT22;62122;41.112;16.694;2022-08-18T11:51:32;37.08;34.06
73792;DHT22;62122;41.112;16.694;2022-08-18T11:54:43;37.28;32.99
73792;DHT22;62122;41.112;16.694;2022-08-18T11:57:54;37.48;32.31
73792;DHT22;62122;41.112;16.694;2022-08-18T12:00:58;37.37;32.49
73792;DHT22;62122;41.112;16.694;2022-08-18T12:04:25;37.35;32.67
73792;DHT22;62122;41.112;16.694;2022-08-18T12:07:34;36.80;33.67
73792;DHT22;62122;41.112;16.694;2022-08-18T12:10:38;37.18;32.85
73792;DHT22;62122;41.112;16.694;2022-08-18T12:13:48;37.38;30.51
73792;DHT22;62122;41.112;16.694;2022-08-18T12:17:00;37.52;30.61
73792;DHT22;62122;41.112;16.694;2022-08-18T12:20:04;37.31;31.74
73792;DHT22;62122;41.112;16.694;2022-08-18T12:23:10;37.64;31.39
73792;DHT22;62122;41.112;16.694;2022-08-18T12:26:14;37.72;30.55
73792;DHT22;62122;41.112;16.694;2022-08-18T12:29:19;37.80;30.77
73792;DHT22;62122;41.112;16.694;2022-08-18T12:32:25;37.69;30.89
73792;DHT22;62122;41.112;16.694;2022-08-18T12:35:29;37.71;31.22
73792;DHT22;62122;41.112;16.694;2022-08-18T12:38:33;37.51;30.98
73792;DHT22;62122;41.112;16.694;2022-08-18T12:41:37;37.44;29.71
73792;DHT22;62122;41.112;16.694;2022-08-18T12:44:42;37.38;31.54
73792;DHT22;62122;41.112;16.694;2022-08-18T12:47:46;37.45;31.66
73792;DHT22;62122;41.112;16.694;2022-08-18T12:50:50;37.42;31.82
73792;DHT22;62122;41.112;16.694;2022-08-18T12:53:54;37.37;32.51
73792;DHT22;62122;41.112;16.694;2022-08-18T12:56:57;37.54;32.59
73792;DHT22;62122;41.112;16.694;2022-08-18T13:00:03;37.55;32.55
73792;DHT22;62122;41.112;16.694;2022-08-18T13:03:08;37.27;32.84
73792;DHT22;62122;41.112;16.694;2022-08-18T13:06:13;37.49;32.28
73792;DHT22;62122;41.112;16.694;2022-08-18T13:09:18;37.62;31.40
73792;DHT22;62122;41.112;16.694;2022-08-18T13:12:22;37.55;31.53
73792;DHT22;62122;41.112;16.694;2022-08-18T13:15:31;37.38;31.48
73792;DHT22;62122;41.112;16.694;2022-08-18T13:18:37;37.65;31.45
73792;DHT22;62122;41.112;16.694;2022-08-18T13:21:42;37.61;31.71
73792;DHT22;62122;41.112;16.694;2022-08-18T13:24:46;37.48;31.52
73792;DHT22;62122;41.112;16.694;2022-08-18T13:27:50;37.45;31.62
73792;DHT22;62122;41.112;16.694;2022-08-18T13:30:55;37.52;31.65
73792;DHT22;62122;41.112;16.694;2022-08-18T13:33:58;37.48;31.64
73792;DHT22;62122;41.112;16.694;2022-08-18T13:37:02;37.73;31.05
73792;DHT22;62122;41.112;16.694;2022-08-18T13:40:08;37.75;30.61
73792;DHT22;62122;41.112;16.694;2022-08-18T13:43:14;37.93;30.36
73792;DHT22;62122;41.112;16.694;2022-08-18T13:46:19;37.80;30.40
73792;DHT22;62122;41.112;16.694;2022-08-18T13:49:23;37.88;29.35
73792;DHT22;62122;41.112;16.694;2022-08-18T13:52:29;37.89;29.53
73792;DHT22;62122;41.112;16.694;2022-08-18T13:55:34;37.73;30.01
73792;DHT22;62122;41.112;16.694;2022-08-18T13:58:38;37.89;30.16
73792;DHT22;62122;41.112;16.694;2022-08-18T14:01:43;37.89;29.98
73792;DHT22;62122;41.112;16.694;2022-08-18T14:04:48;37.86;30.10
73792;DHT22;62122;41.112;16.694;2022-08-18T14:07:53;37.89;29.82
73792;DHT22;62122;41.112;16.694;2022-08-18T14:10:58;37.88;29.51
73792;DHT22;62122;41.112;16.694;2022-08-18T14:14:04;37.82;29.25
73792;DHT22;62122;41.112;16.694;2022-08-18T14:17:08;37.73;29.38
73792;DHT22;62122;41.112;16.694;2022-08-18T14:20:12;37.65;29.47
73792;DHT22;62122;41.112;16.694;2022-08-18T14:23:36;37.42;30.31
73792;DHT22;62122;41.112;16.694;2022-08-18T14:26:58;37.45;29.61
73792;DHT22;62122;41.112;16.694;2022-08-18T14:30:08;37.38;30.14
73792;DHT22;62122;41.112;16.694;2022-08-18T14:33:18;37.45;29.95
73792;DHT22;62122;41.112;16.694;2022-08-18T14:36:22;37.48;29.88
73792;DHT22;62122;41.112;16.694;2022-08-18T14:39:27;37.64;29.76
73792;DHT22;62122;41.112;16.694;2022-08-18T14:42:32;37.72;29.52
73792;DHT22;62122;41.112;16.694;2022-08-18T14:45:35;37.72;29.82
73792;DHT22;62122;41.112;16.694;2022-08-18T14:48:40;37.69;29.33
73792;DHT22;62122;41.112;16.694;2022-08-18T14:51:44;37.69;29.22
73792;DHT22;62122;41.112;16.694;2022-08-18T14:54:49;37.79;29.14
73792;DHT22;62122;41.112;16.694;2022-08-18T14:57:53;37.64;30.03
73792;DHT22;62122;41.112;16.694;2022-08-18T15:01:04;37.71;30.20
73792;DHT22;62122;41.112;16.694;2022-08-18T15:04:11;37.42;30.46
73792;DHT22;62122;41.112;16.694;2022-08-18T15:07:17;37.42;30.60
73792;DHT22;62122;41.112;16.694;2022-08-18T15:10:21;37.27;31.84
73792;DHT22;62122;41.112;16.694;2022-08-18T15:13:26;37.08;32.23
73792;DHT22;62122;41.112;16.694;2022-08-18T15:16:30;37.03;32.05
73792;DHT22;62122;41.112;16.694;2022-08-18T15:19:37;37.03;31.45
73792;DHT22;62122;41.112;16.694;2022-08-18T15:22:42;37.08;30.90
73792;DHT22;62122;41.112;16.694;2022-08-18T15:26:05;37.25;31.28
73792;DHT22;62122;41.112;16.694;2022-08-18T15:29:10;37.14;31.97
73792;DHT22;62122;41.112;16.694;2022-08-18T15:32:14;36.96;31.88
73792;DHT22;62122;41.112;16.694;2022-08-18T15:35:19;36.79;32.48
73792;DHT22;62122;41.112;16.694;2022-08-18T15:38:24;36.77;32.75
73792;DHT22;62122;41.112;16.694;2022-08-18T15:41:39;36.77;32.96
73792;DHT22;62122;41.112;16.694;2022-08-18T15:44:43;36.68;33.26
73792;DHT22;62122;41.112;16.694;2022-08-18T15:47:47;36.57;33.93
73792;DHT22;62122;41.112;16.694;2022-08-18T15:50:51;36.53;34.42
73792;DHT22;62122;41.112;16.694;2022-08-18T15:53:55;36.42;35.09
73792;DHT22;62122;41.112;16.694;2022-08-18T15:56:59;36.36;35.11
73792;DHT22;62122;41.112;16.694;2022-08-18T16:00:04;36.28;35.04
73792;DHT22;62122;41.112;16.694;2022-08-18T16:03:15;36.14;35.44
73792;DHT22;62122;41.112;16.694;2022-08-18T16:06:22;36.05;35.74
73792;DHT22;62122;41.112;16.694;2022-08-18T16:09:26;35.94;35.98
73792;DHT22;62122;41.112;16.694;2022-08-18T16:12:30;35.80;36.39
73792;DHT22;62122;41.112;16.694;2022-08-18T16:15:37;35.78;36.08
73792;DHT22;62122;41.112;16.694;2022-08-18T16:18:41;35.64;36.44
73792;DHT22;62122;41.112;16.694;2022-08-18T16:21:48;35.57;36.48
73792;DHT22;62122;41.112;16.694;2022-08-18T16:24:55;35.49;36.47
73792;DHT22;62122;41.112;16.694;2022-08-18T16:28:00;35.45;36.77
73792;DHT22;62122;41.112;16.694;2022-08-18T16:31:04;35.30;36.59
73792;DHT22;62122;41.112;16.694;2022-08-18T16:34:08;35.22;36.44
73792;DHT22;62122;41.112;16.694;2022-08-18T16:37:12;35.02;36.35
73792;DHT22;62122;41.112;16.694;2022-08-18T16:40:17;34.90;36.67
73792;DHT22;62122;41.112;16.694;2022-08-18T16:43:22;34.91;36.86
73792;DHT22;62122;41.112;16.694;2022-08-18T16:46:27;34.65;37.37
73792;DHT22;62122;41.112;16.694;2022-08-18T16:49:32;34.58;37.70
73792;DHT22;62122;41.112;16.694;2022-08-18T16:52:36;34.43;38.11
73792;DHT22;62122;41.112;16.694;2022-08-18T16:55:41;34.30;38.50
73792;DHT22;62122;41.112;16.694;2022-08-18T16:58:46;34.32;38.94
73792;DHT22;62122;41.112;16.694;2022-08-18T17:02:09;34.27;39.12
73792;DHT22;62122;41.112;16.694;2022-08-18T17:05:31;34.13;39.36
73792;DHT22;62122;41.112;16.694;2022-08-18T17:08:38;34.13;39.30
73792;DHT22;62122;41.112;16.694;2022-08-18T17:11:43;34.05;39.58
73792;DHT22;62122;41.112;16.694;2022-08-18T17:14:47;34.16;39.45
73792;DHT22;62122;41.112;16.694;2022-08-18T17:17:51;34.00;39.83
73792;DHT22;62122;41.112;16.694;2022-08-18T17:20:59;33.91;39.87
73792;DHT22;62122;41.112;16.694;2022-08-18T17:24:06;33.75;40.03
73792;DHT22;62122;41.112;16.694;2022-08-18T17:27:21;33.81;39.80
73792;DHT22;62122;41.112;16.694;2022-08-18T17:30:30;33.71;40.10
73792;DHT22;62122;41.112;16.694;2022-08-18T17:33:38;33.51;39.87
73792;DHT22;62122;41.112;16.694;2022-08-18T17:36:50;33.53;39.96
73792;DHT22;62122;41.112;16.694;2022-08-18T17:40:00;33.53;39.96
73792;DHT22;62122;41.112;16.694;2022-08-18T17:43:11;33.41;40.37
73792;DHT22;62122;41.112;16.694;2022-08-18T17:46:27;33.23;40.31
73792;DHT22;62122;41.112;16.694;2022-08-18T17:49:40;33.21;40.49
73792;DHT22;62122;41.112;16.694;2022-08-18T17:53:04;33.11;40.74
73792;DHT22;62122;41.112;16.694;2022-08-18T17:56:15;32.96;41.20
73792;DHT22;62122;41.112;16.694;2022-08-18T17:59:33;32.78;41.93
73792;DHT22;62122;41.112;16.694;2022-08-18T18:02:40;32.66;42.54
73792;DHT22;62122;41.112;16.694;2022-08-18T18:06:07;32.49;42.92
73792;DHT22;62122;41.112;16.694;2022-08-18T18:12:25;32.32;43.08
73792;DHT22;62122;41.112;16.694;2022-08-18T18:15:32;32.31;43.20
73792;DHT22;62122;41.112;16.694;2022-08-18T18:18:39;32.31;42.93
73792;DHT22;62122;41.112;16.694;2022-08-18T18:25:11;32.13;43.22
73792;DHT22;62122;41.112;16.694;2022-08-18T18:28:43;32.07;43.50
73792;DHT22;62122;41.112;16.694;2022-08-18T18:32:03;31.80;44.72
73792;DHT22;62122;41.112;16.694;2022-08-18T18:35:17;31.81;44.27
73792;DHT22;62122;41.112;16.694;2022-08-18T18:38:30;31.73;43.45
73792;DHT22;62122;41.112;16.694;2022-08-18T18:41:34;31.66;43.41
73792;DHT22;62122;41.112;16.694;2022-08-18T18:44:49;31.63;43.27
73792;DHT22;62122;41.112;16.694;2022-08-18T18:48:23;31.63;43.04
73792;DHT22;62122;41.112;16.694;2022-08-18T18:55:17;31.49;42.87
73792;DHT22;62122;41.112;16.694;2022-08-18T19:05:32;31.39;42.23
73792;DHT22;62122;41.112;16.694;2022-08-18T19:11:58;31.21;42.47
73792;DHT22;62122;41.112;16.694;2022-08-18T19:15:09;31.18;42.66
73792;DHT22;62122;41.112;16.694;2022-08-18T19:21:23;31.07;42.82
73792;DHT22;62122;41.112;16.694;2022-08-18T19:24:29;31.01;42.50
73792;DHT22;62122;41.112;16.694;2022-08-18T19:27:38;31.02;42.21
73792;DHT22;62122;41.112;16.694;2022-08-18T19:30:46;30.98;42.17
73792;DHT22;62122;41.112;16.694;2022-08-18T19:33:59;30.90;42.83
73792;DHT22;62122;41.112;16.694;2022-08-18T19:40:44;30.76;42.55
73792;DHT22;62122;41.112;16.694;2022-08-18T19:44:01;30.73;42.39
73792;DHT22;62122;41.112;16.694;2022-08-18T19:47:12;30.74;42.11
73792;DHT22;62122;41.112;16.694;2022-08-18T20:00:59;30.66;42.54
73792;DHT22;62122;41.112;16.694;2022-08-18T20:04:26;30.66;42.52
73792;DHT22;62122;41.112;16.694;2022-08-18T20:14:19;30.64;42.93
73792;DHT22;62122;41.112;16.694;2022-08-18T20:17:23;30.63;43.04
73792;DHT22;62122;41.112;16.694;2022-08-18T20:20:34;30.60;43.29
73792;DHT22;62122;41.112;16.694;2022-08-18T20:31:04;30.59;43.54
73792;DHT22;62122;41.112;16.694;2022-08-18T20:34:11;30.56;43.29
73792;DHT22;62122;41.112;16.694;2022-08-18T20:37:23;30.63;43.36
73792;DHT22;62122;41.112;16.694;2022-08-18T23:14:51;30.22;42.53
73792;DHT22;62122;41.112;16.694;2022-08-18T23:17:57;30.19;42.75
73792;DHT22;62122;41.112;16.694;2022-08-18T23:21:02;30.13;42.86
73792;DHT22;62122;41.112;16.694;2022-08-18T23:24:08;30.19;42.72
73792;DHT22;62122;41.112;16.694;2022-08-18T23:27:12;30.11;42.92
73792;DHT22;62122;41.112;16.694;2022-08-18T23:30:16;29.95;43.27
73792;DHT22;62122;41.112;16.694;2022-08-18T23:33:21;29.81;43.33
73792;DHT22;62122;41.112;16.694;2022-08-18T23:36:30;29.65;43.73
73792;DHT22;62122;41.112;16.694;2022-08-18T23:39:35;29.53;43.99
73792;DHT22;62122;41.112;16.694;2022-08-18T23:42:41;29.42;44.18
73792;DHT22;62122;41.112;16.694;2022-08-18T23:45:45;29.47;44.23
73792;DHT22;62122;41.112;16.694;2022-08-18T23:48:56;29.43;44.33
73792;DHT22;62122;41.112;16.694;2022-08-18T23:52:00;29.34;44.65
73792;DHT22;62122;41.112;16.694;2022-08-18T23:55:06;29.42;44.49
73792;DHT22;62122;41.112;16.694;2022-08-18T23:58:10;29.29;44.78
